createdAt,value
2023-02-02T00:02:01.302Z,18.70
2023-02-02T00:04:31.622Z,18.70
2023-02-02T00:06:59.128Z,18.70
2023-02-02T00:09:31.453Z,18.70
2023-02-02T00:11:59.447Z,18.70
2023-02-02T00:14:26.639Z,18.70
2023-02-02T00:16:55.046Z,18.70
2023-02-02T00:19:33.462Z,18.70
2023-02-02T00:22:00.289Z,18.70
2023-02-02T00:24:27.477Z,18.70
2023-02-02T00:26:59.311Z,18.70
2023-02-02T00:29:30.722Z,18.70
2023-02-02T00:31:57.714Z,18.70
2023-02-02T00:34:24.697Z,18.60
2023-02-02T00:36:51.863Z,18.70
2023-02-02T00:39:22.118Z,18.60
2023-02-02T00:41:48.761Z,18.60
2023-02-02T00:44:33.976Z,18.60
2023-02-02T00:47:00.613Z,18.60
2023-02-02T00:49:27.357Z,18.60
2023-02-02T00:51:54.130Z,18.60
2023-02-02T00:54:20.827Z,18.60
2023-02-02T00:56:47.920Z,18.60
2023-02-02T00:59:14.591Z,18.60
2023-02-02T01:01:41.280Z,18.60
2023-02-02T01:04:08.376Z,18.60
2023-02-02T01:06:35.164Z,18.60
2023-02-02T01:09:02.661Z,18.60
2023-02-02T01:11:30.906Z,18.60
2023-02-02T01:13:57.716Z,18.60
2023-02-02T01:16:24.947Z,18.60
2023-02-02T01:18:52.241Z,18.50
2023-02-02T01:21:19.757Z,18.60
2023-02-02T01:23:46.778Z,18.50
2023-02-02T01:26:14.479Z,18.50
2023-02-02T01:28:41.514Z,18.50
2023-02-02T01:31:11.142Z,18.50
2023-02-02T01:33:37.947Z,18.50
2023-02-02T01:36:07.550Z,18.50
2023-02-02T01:38:34.999Z,18.50
2023-02-02T01:41:04.418Z,18.50
2023-02-02T01:43:57.731Z,18.50
2023-02-02T01:46:27.666Z,18.50
2023-02-02T01:49:11.151Z,18.50
2023-02-02T01:51:54.655Z,18.50
2023-02-02T01:54:28.232Z,18.50
2023-02-02T01:57:04.038Z,18.50
2023-02-02T01:59:31.443Z,18.40
2023-02-02T02:01:58.756Z,18.40
2023-02-02T02:04:27.187Z,18.40
2023-02-02T02:06:53.953Z,18.40
2023-02-02T02:09:20.976Z,18.40
2023-02-02T02:11:48.172Z,18.40
2023-02-02T02:14:34.753Z,18.40
2023-02-02T02:17:19.392Z,18.40
2023-02-02T02:20:39.202Z,18.40
2023-02-02T02:23:46.174Z,18.40
2023-02-02T02:26:34.422Z,18.40
2023-02-02T02:29:17.527Z,18.40
2023-02-02T02:32:17.111Z,18.40
2023-02-02T02:34:53.847Z,18.40
2023-02-02T02:37:52.374Z,18.30
2023-02-02T02:40:22.320Z,18.30
2023-02-02T02:42:57.551Z,18.30
2023-02-02T02:45:26.985Z,18.30
2023-02-02T02:47:54.392Z,18.30
2023-02-02T02:50:22.333Z,18.30
2023-02-02T02:52:53.933Z,18.30
2023-02-02T02:55:20.714Z,18.30
2023-02-02T02:58:16.681Z,18.40
2023-02-02T03:00:49.866Z,18.30
2023-02-02T03:03:41.952Z,18.30
2023-02-02T03:06:13.195Z,18.30
2023-02-02T03:09:12.222Z,18.30
2023-02-02T03:11:39.013Z,18.30
2023-02-02T03:14:09.499Z,18.30
2023-02-02T03:16:39.181Z,18.30
2023-02-02T03:19:07.365Z,18.30
2023-02-02T03:21:34.369Z,18.30
2023-02-02T03:24:01.699Z,18.30
2023-02-02T03:26:28.984Z,18.30
2023-02-02T03:28:57.453Z,18.30
2023-02-02T03:31:27.174Z,18.30
2023-02-02T03:33:54.212Z,18.30
2023-02-02T03:36:20.924Z,18.30
2023-02-02T03:38:47.752Z,18.30
2023-02-02T03:41:14.437Z,18.30
2023-02-02T03:43:41.229Z,18.30
2023-02-02T03:46:07.929Z,18.30
2023-02-02T03:48:38.593Z,18.30
2023-02-02T03:51:11.619Z,18.30
2023-02-02T03:53:39.199Z,18.30
2023-02-02T03:56:06.598Z,18.30
2023-02-02T03:58:33.316Z,18.30
2023-02-02T04:01:07.599Z,18.30
2023-02-02T04:03:34.423Z,18.30
2023-02-02T04:06:01.259Z,18.30
2023-02-02T04:08:28.620Z,18.20
2023-02-02T04:10:55.386Z,18.20
2023-02-02T04:13:22.117Z,18.30
2023-02-02T04:15:55.909Z,18.20
2023-02-02T04:18:22.685Z,18.30
2023-02-02T04:20:49.343Z,18.30
2023-02-02T04:23:16.020Z,18.30
2023-02-02T04:25:49.703Z,18.30
2023-02-02T04:28:16.310Z,18.30
2023-02-02T04:30:43.029Z,18.20
2023-02-02T04:33:09.763Z,18.20
2023-02-02T04:35:36.456Z,18.20
2023-02-02T04:38:03.138Z,18.20
2023-02-02T04:40:29.810Z,18.20
2023-02-02T04:42:58.313Z,18.20
2023-02-02T04:45:25.422Z,18.20
2023-02-02T04:47:52.289Z,18.20
2023-02-02T04:50:19.039Z,18.20
2023-02-02T04:52:45.797Z,18.20
2023-02-02T04:55:12.652Z,18.20
2023-02-02T04:57:39.391Z,18.20
2023-02-02T05:00:07.255Z,18.20
2023-02-02T05:02:37.499Z,18.20
2023-02-02T05:05:06.350Z,18.20
2023-02-02T05:07:33.121Z,18.20
2023-02-02T05:09:59.769Z,18.20
2023-02-02T05:12:26.453Z,18.20
2023-02-02T05:14:53.176Z,18.20
2023-02-02T05:17:19.860Z,18.20
2023-02-02T05:19:46.557Z,18.20
2023-02-02T05:22:13.332Z,18.20
2023-02-02T05:24:40.000Z,18.20
2023-02-02T05:27:06.654Z,18.20
2023-02-02T05:29:33.413Z,18.20
2023-02-02T05:32:00.106Z,18.20
2023-02-02T05:34:26.847Z,18.20
2023-02-02T05:36:53.558Z,18.20
2023-02-02T05:39:20.176Z,18.20
2023-02-02T05:41:46.881Z,18.20
2023-02-02T05:44:15.995Z,18.20
2023-02-02T05:46:42.696Z,18.20
2023-02-02T05:49:13.551Z,18.20
2023-02-02T05:51:48.611Z,18.20
2023-02-02T05:54:19.404Z,18.20
2023-02-02T05:56:48.362Z,18.20
2023-02-02T05:59:15.130Z,18.20
2023-02-02T06:01:41.776Z,18.20
2023-02-02T06:04:08.496Z,18.20
2023-02-02T06:06:35.793Z,18.20
2023-02-02T06:09:02.714Z,18.20
2023-02-02T06:11:29.675Z,18.20
2023-02-02T06:13:56.597Z,18.10
2023-02-02T06:16:23.529Z,18.20
2023-02-02T06:18:50.197Z,18.20
2023-02-02T06:21:17.221Z,18.20
2023-02-02T06:23:45.842Z,18.20
2023-02-02T06:26:13.822Z,18.20
2023-02-02T06:28:40.847Z,18.20
2023-02-02T06:31:10.179Z,18.20
2023-02-02T06:33:37.320Z,18.20
2023-02-02T06:36:06.457Z,18.10
2023-02-02T06:38:33.400Z,18.10
2023-02-02T06:41:00.955Z,18.20
2023-02-02T06:43:28.279Z,18.10
2023-02-02T06:45:56.761Z,18.20
2023-02-02T06:48:23.443Z,18.10
2023-02-02T06:50:50.177Z,18.10
2023-02-02T06:53:22.200Z,18.10
2023-02-02T06:55:56.455Z,18.10
2023-02-02T06:58:23.470Z,18.10
2023-02-02T07:00:50.292Z,18.10
2023-02-02T07:03:17.665Z,18.10
2023-02-02T07:05:44.367Z,18.10
2023-02-02T07:08:10.987Z,18.10
2023-02-02T07:11:15.307Z,18.10
2023-02-02T07:13:25.571Z,18.10
2023-02-02T07:15:52.210Z,18.10
2023-02-02T07:18:18.934Z,18.10
2023-02-02T07:20:45.691Z,18.10
2023-02-02T07:23:12.467Z,18.10
2023-02-02T07:25:39.299Z,18.10
2023-02-02T07:28:06.259Z,18.10
2023-02-02T07:30:33.364Z,18.10
2023-02-02T07:33:00.541Z,18.10
2023-02-02T07:35:27.249Z,18.20
2023-02-02T07:37:55.485Z,18.20
2023-02-02T07:40:22.441Z,18.30
2023-02-02T07:42:49.384Z,18.30
2023-02-02T07:45:36.174Z,18.20
2023-02-02T07:48:03.144Z,18.20
2023-02-02T07:50:31.076Z,18.20
2023-02-02T07:52:59.539Z,18.20
2023-02-02T07:55:26.267Z,18.20
2023-02-02T07:57:55.399Z,18.20
2023-02-02T08:00:23.056Z,18.20
2023-02-02T08:02:50.217Z,18.20
2023-02-02T08:05:17.165Z,18.20
2023-02-02T08:07:44.710Z,18.20
2023-02-02T08:10:11.934Z,18.20
2023-02-02T08:12:38.622Z,18.20
2023-02-02T08:15:05.697Z,18.20
2023-02-02T08:17:32.394Z,18.20
2023-02-02T08:19:59.104Z,18.20
2023-02-02T08:22:25.995Z,18.20
2023-02-02T08:24:52.649Z,18.20
2023-02-02T08:27:19.314Z,18.20
2023-02-02T08:29:46.210Z,18.20
2023-02-02T08:32:12.888Z,18.20
2023-02-02T08:34:40.975Z,18.20
2023-02-02T08:37:07.777Z,18.20
2023-02-02T08:39:34.431Z,18.20
2023-02-02T08:42:01.053Z,18.20
2023-02-02T08:44:43.026Z,18.20
2023-02-02T08:47:14.535Z,18.20
2023-02-02T08:49:42.448Z,18.20
2023-02-02T08:52:09.414Z,18.20
2023-02-02T08:54:36.067Z,18.20
2023-02-02T08:57:02.787Z,18.30
2023-02-02T08:59:29.469Z,18.30
2023-02-02T09:01:56.454Z,18.40
2023-02-02T09:04:23.308Z,18.50
2023-02-02T09:06:49.961Z,18.50
2023-02-02T09:09:17.074Z,18.60
2023-02-02T09:11:44.672Z,18.60
2023-02-02T09:14:13.834Z,18.50
2023-02-02T09:16:40.936Z,18.40
2023-02-02T09:19:08.073Z,18.50
2023-02-02T09:21:37.849Z,18.50
2023-02-02T09:24:13.686Z,18.50
2023-02-02T09:26:41.001Z,18.50
2023-02-02T09:29:11.107Z,18.50
2023-02-02T09:31:38.506Z,18.50
2023-02-02T09:34:07.667Z,18.50
2023-02-02T09:36:35.039Z,18.40
2023-02-02T09:39:02.162Z,18.40
2023-02-02T09:41:59.530Z,18.40
2023-02-02T09:44:46.651Z,18.30
2023-02-02T09:47:41.003Z,18.30
2023-02-02T09:50:20.212Z,18.30
2023-02-02T09:52:56.435Z,18.40
2023-02-02T09:55:37.258Z,18.40
2023-02-02T09:58:24.850Z,18.30
2023-02-02T10:01:13.576Z,18.40
2023-02-02T10:04:01.549Z,18.40
2023-02-02T10:06:35.329Z,18.50
2023-02-02T10:09:10.475Z,18.40
2023-02-02T10:11:55.965Z,18.40
2023-02-02T10:14:32.574Z,18.40
2023-02-02T10:17:12.898Z,18.40
2023-02-02T10:19:40.743Z,18.30
2023-02-02T10:22:17.855Z,18.40
2023-02-02T10:24:44.731Z,18.40
2023-02-02T10:27:16.734Z,18.40
2023-02-02T10:30:03.707Z,18.40
2023-02-02T10:32:54.326Z,18.40
2023-02-02T10:35:49.873Z,18.40
2023-02-02T10:38:39.214Z,18.30
2023-02-02T10:41:20.147Z,18.30
2023-02-02T10:44:04.961Z,18.30
2023-02-02T10:46:38.168Z,18.30
2023-02-02T10:49:28.738Z,18.30
2023-02-02T10:52:10.964Z,18.30
2023-02-02T10:54:57.166Z,18.30
2023-02-02T10:57:52.765Z,18.30
2023-02-02T11:00:36.274Z,18.30
2023-02-02T11:03:04.774Z,18.30
2023-02-02T11:05:50.563Z,18.30
2023-02-02T11:08:42.101Z,18.30
2023-02-02T11:11:16.811Z,18.40
2023-02-02T11:13:55.297Z,18.40
2023-02-02T11:16:38.755Z,18.40
2023-02-02T11:19:30.256Z,18.40
2023-02-02T11:22:02.308Z,18.40
2023-02-02T11:24:30.213Z,18.40
2023-02-02T11:27:01.979Z,18.40
2023-02-02T11:29:42.888Z,18.40
2023-02-02T11:32:30.736Z,18.40
2023-02-02T11:35:06.370Z,18.40
2023-02-02T11:37:52.068Z,18.40
2023-02-02T11:40:28.608Z,18.40
2023-02-02T11:42:57.487Z,18.40
2023-02-02T11:45:33.576Z,18.40
2023-02-02T11:48:32.034Z,18.40
2023-02-02T11:51:00.841Z,18.40
2023-02-02T11:53:29.042Z,18.40
2023-02-02T11:55:58.289Z,18.50
2023-02-02T11:58:28.499Z,18.50
2023-02-02T12:01:01.054Z,18.50
2023-02-02T12:03:39.150Z,18.50
2023-02-02T12:06:23.986Z,18.50
2023-02-02T12:09:01.340Z,18.50
2023-02-02T12:11:57.123Z,18.50
2023-02-02T12:14:37.900Z,18.50
2023-02-02T12:17:23.062Z,18.50
2023-02-02T12:19:52.468Z,18.50
2023-02-02T12:22:26.667Z,18.50
2023-02-02T12:25:18.632Z,18.50
2023-02-02T12:27:52.573Z,18.50
2023-02-02T12:30:59.790Z,18.50
2023-02-02T12:33:35.732Z,18.50
2023-02-02T12:36:21.841Z,18.50
2023-02-02T12:39:20.911Z,18.50
2023-02-02T12:41:54.297Z,18.50
2023-02-02T12:44:31.452Z,18.50
2023-02-02T12:47:14.677Z,18.50
2023-02-02T12:50:02.747Z,18.50
2023-02-02T12:52:59.574Z,18.50
2023-02-02T12:55:44.861Z,18.50
2023-02-02T12:58:31.457Z,18.50
2023-02-02T13:01:34.664Z,18.50
2023-02-02T13:04:38.634Z,18.50
2023-02-02T13:07:23.891Z,18.50
2023-02-02T13:10:39.176Z,18.50
2023-02-02T13:13:20.470Z,18.50
2023-02-02T13:15:51.119Z,18.50
2023-02-02T13:18:24.635Z,18.50
2023-02-02T13:21:00.389Z,18.50
2023-02-02T13:23:37.072Z,18.50
2023-02-02T13:26:17.835Z,18.50
2023-02-02T13:29:11.249Z,18.50
2023-02-02T13:31:52.042Z,18.50
2023-02-02T13:34:42.921Z,18.50
2023-02-02T13:37:37.325Z,18.50
2023-02-02T13:40:36.642Z,18.50
2023-02-02T13:43:29.165Z,18.50
2023-02-02T13:46:17.321Z,18.50
2023-02-02T13:49:41.108Z,18.50
2023-02-02T13:52:38.532Z,18.50
2023-02-02T13:55:42.587Z,18.50
2023-02-02T13:58:20.889Z,18.50
2023-02-02T14:00:52.875Z,18.40
2023-02-02T14:03:28.675Z,18.40
2023-02-02T14:06:17.763Z,18.40
2023-02-02T14:09:02.669Z,18.40
2023-02-02T14:11:33.234Z,18.40
2023-02-02T14:14:33.392Z,18.40
2023-02-02T14:17:05.706Z,18.40
2023-02-02T14:19:35.464Z,18.40
2023-02-02T14:22:16.498Z,18.40
2023-02-02T14:24:44.828Z,18.40
2023-02-02T14:27:11.495Z,18.40
2023-02-02T14:29:59.221Z,18.40
2023-02-02T14:32:28.612Z,18.40
2023-02-02T14:35:08.194Z,18.40
2023-02-02T14:38:04.163Z,18.40
2023-02-02T14:40:55.876Z,18.40
2023-02-02T14:43:44.563Z,18.40
2023-02-02T14:46:14.351Z,18.40
2023-02-02T14:49:05.351Z,18.40
2023-02-02T14:51:34.623Z,18.40
2023-02-02T14:54:05.121Z,18.40
2023-02-02T14:56:52.911Z,18.40
2023-02-02T14:59:24.613Z,18.40
2023-02-02T15:02:02.125Z,18.40
2023-02-02T15:04:29.579Z,18.40
2023-02-02T15:07:16.493Z,18.40
2023-02-02T15:09:44.360Z,18.40
2023-02-02T15:12:14.746Z,18.40
2023-02-02T15:14:56.451Z,18.40
2023-02-02T15:17:32.676Z,18.40
2023-02-02T15:20:21.075Z,18.40
2023-02-02T15:22:47.828Z,18.40
2023-02-02T15:25:30.983Z,18.40
2023-02-02T15:28:08.827Z,18.40
2023-02-02T15:30:40.033Z,18.40
2023-02-02T15:33:18.985Z,18.40
2023-02-02T15:35:48.183Z,18.40
2023-02-02T15:38:20.380Z,18.40
2023-02-02T15:40:47.204Z,18.40
2023-02-02T15:43:15.433Z,18.40
2023-02-02T15:45:45.217Z,18.40
2023-02-02T15:48:24.583Z,18.40
2023-02-02T15:50:56.633Z,18.40
2023-02-02T15:53:33.242Z,18.40
2023-02-02T15:56:01.877Z,18.40
2023-02-02T15:58:32.141Z,18.40
2023-02-02T16:01:03.075Z,18.40
2023-02-02T16:03:42.393Z,18.40
2023-02-02T16:06:09.446Z,18.40
2023-02-02T16:08:38.954Z,18.40
2023-02-02T16:11:15.491Z,18.40
2023-02-02T16:13:54.755Z,18.40
2023-02-02T16:16:32.956Z,18.40
2023-02-02T16:19:04.499Z,18.40
2023-02-02T16:21:31.944Z,18.40
2023-02-02T16:24:00.555Z,18.40
2023-02-02T16:26:30.184Z,18.40
2023-02-02T16:28:57.395Z,18.40
2023-02-02T16:31:25.114Z,18.40
2023-02-02T16:33:51.803Z,18.40
2023-02-02T16:36:26.417Z,18.40
2023-02-02T16:38:54.651Z,18.40
2023-02-02T16:41:32.983Z,18.40
2023-02-02T16:44:32.956Z,18.40
2023-02-02T16:47:00.281Z,18.40
2023-02-02T16:49:28.459Z,18.40
2023-02-02T16:52:17.437Z,18.40
2023-02-02T16:54:53.651Z,18.40
2023-02-02T16:57:28.766Z,18.40
2023-02-02T17:00:06.143Z,18.40
2023-02-02T17:02:37.711Z,18.40
2023-02-02T17:05:06.460Z,18.50
2023-02-02T17:07:36.646Z,18.50
2023-02-02T17:10:14.825Z,18.50
2023-02-02T17:12:41.518Z,18.50
2023-02-02T17:15:17.424Z,18.50
2023-02-02T17:17:48.019Z,18.50
2023-02-02T17:20:19.183Z,18.50
2023-02-02T17:22:49.426Z,18.60
2023-02-02T17:25:27.594Z,18.60
2023-02-02T17:27:55.829Z,18.60
2023-02-02T17:30:22.870Z,18.70
2023-02-02T17:32:49.461Z,18.70
2023-02-02T17:35:19.391Z,18.70
2023-02-02T17:37:46.065Z,18.70
2023-02-02T17:40:14.883Z,18.70
2023-02-02T17:42:43.627Z,18.70
2023-02-02T17:45:23.286Z,18.80
2023-02-02T17:47:51.035Z,18.90
2023-02-02T17:50:18.392Z,18.90
2023-02-02T17:52:46.002Z,18.80
2023-02-02T17:55:36.816Z,18.80
2023-02-02T17:58:03.943Z,18.80
2023-02-02T18:00:31.620Z,18.80
2023-02-02T18:03:10.950Z,18.80
2023-02-02T18:05:38.857Z,18.80
2023-02-02T18:08:06.504Z,18.80
2023-02-02T18:10:33.497Z,18.90
2023-02-02T18:13:00.172Z,18.90
2023-02-02T18:15:27.231Z,18.90
2023-02-02T18:17:55.154Z,18.90
2023-02-02T18:20:21.757Z,18.90
2023-02-02T18:22:50.725Z,18.90
2023-02-02T18:25:17.800Z,18.90
2023-02-02T18:27:44.768Z,18.90
2023-02-02T18:30:12.233Z,18.90
2023-02-02T18:32:41.123Z,18.90
2023-02-02T18:35:10.654Z,18.90
2023-02-02T18:37:38.069Z,18.90
2023-02-02T18:40:05.820Z,18.90
2023-02-02T18:42:33.704Z,18.90
2023-02-02T18:45:01.216Z,18.90
2023-02-02T18:47:28.193Z,18.90
2023-02-02T18:49:54.983Z,18.90
2023-02-02T18:52:21.740Z,18.90
2023-02-02T18:54:48.650Z,19.00
2023-02-02T18:57:15.491Z,18.90
2023-02-02T18:59:42.773Z,18.90
2023-02-02T19:02:14.693Z,19.00
2023-02-02T19:05:01.721Z,18.90
2023-02-02T19:07:46.888Z,18.90
2023-02-02T19:10:13.787Z,19.00
2023-02-02T19:12:40.540Z,19.00
2023-02-02T19:15:12.897Z,19.10
2023-02-02T19:17:40.344Z,19.10
2023-02-02T19:20:23.164Z,19.00
2023-02-02T19:22:49.981Z,19.00
2023-02-02T19:25:17.462Z,19.00
2023-02-02T19:27:44.248Z,19.00
2023-02-02T19:30:22.625Z,19.00
2023-02-02T19:32:49.415Z,19.00
2023-02-02T19:35:27.402Z,19.00
2023-02-02T19:38:01.291Z,19.00
2023-02-02T19:40:28.310Z,19.00
2023-02-02T19:43:23.235Z,19.00
2023-02-02T19:45:50.002Z,19.00
2023-02-02T19:48:24.851Z,19.00
2023-02-02T19:50:52.308Z,19.00
2023-02-02T19:53:23.127Z,19.00
2023-02-02T19:55:51.037Z,18.90
2023-02-02T19:58:24.081Z,19.00
2023-02-02T20:00:52.488Z,19.00
2023-02-02T20:03:39.413Z,19.00
2023-02-02T20:06:06.107Z,19.00
2023-02-02T20:08:43.501Z,19.00
2023-02-02T20:11:36.717Z,19.00
2023-02-02T20:14:18.991Z,19.00
2023-02-02T20:16:50.747Z,19.00
2023-02-02T20:19:21.807Z,19.00
2023-02-02T20:21:51.218Z,19.00
2023-02-02T20:24:22.600Z,19.00
2023-02-02T20:26:51.406Z,19.00
2023-02-02T20:29:22.399Z,18.90
2023-02-02T20:31:51.312Z,19.00
2023-02-02T20:34:32.766Z,19.00
2023-02-02T20:37:05.858Z,19.00
2023-02-02T20:39:35.475Z,19.00
2023-02-02T20:42:03.701Z,19.00
2023-02-02T20:44:32.482Z,19.00
2023-02-02T20:47:00.397Z,19.00
2023-02-02T20:49:28.768Z,19.00
2023-02-02T20:51:56.552Z,19.00
2023-02-02T20:54:24.805Z,19.00
2023-02-02T20:56:52.489Z,19.10
2023-02-02T20:59:22.427Z,19.10
2023-02-02T21:01:50.114Z,19.10
2023-02-02T21:04:18.117Z,19.00
2023-02-02T21:06:46.360Z,19.00
2023-02-02T21:09:12.982Z,19.00
2023-02-02T21:11:39.604Z,19.00
2023-02-02T21:14:06.336Z,19.00
2023-02-02T21:16:33.291Z,19.00
2023-02-02T21:19:00.126Z,19.00
2023-02-02T21:21:26.820Z,19.00
2023-02-02T21:23:53.557Z,18.90
2023-02-02T21:26:23.506Z,19.00
2023-02-02T21:28:50.185Z,19.00
2023-02-02T21:31:17.760Z,19.00
2023-02-02T21:33:45.586Z,19.00
2023-02-02T21:36:44.050Z,19.00
2023-02-02T21:39:25.713Z,19.00
2023-02-02T21:42:00.150Z,19.00
2023-02-02T21:44:26.965Z,19.00
2023-02-02T21:46:53.743Z,19.00
2023-02-02T21:49:24.439Z,19.00
2023-02-02T21:51:52.231Z,18.90
2023-02-02T21:54:25.980Z,19.00
2023-02-02T21:56:53.254Z,19.00
2023-02-02T21:59:22.682Z,19.00
2023-02-02T22:01:51.373Z,18.90
2023-02-02T22:04:19.535Z,19.00
2023-02-02T22:06:53.894Z,19.00
2023-02-02T22:09:24.765Z,19.00
2023-02-02T22:12:05.771Z,19.00
2023-02-02T22:14:40.735Z,18.90
2023-02-02T22:17:18.795Z,19.00
2023-02-02T22:19:45.873Z,18.90
2023-02-02T22:22:16.223Z,18.90
2023-02-02T22:24:45.290Z,18.90
2023-02-02T22:27:23.706Z,19.00
2023-02-02T22:29:56.824Z,19.00
2023-02-02T22:32:23.482Z,19.00
2023-02-02T22:34:50.132Z,19.00
2023-02-02T22:37:17.944Z,19.00
2023-02-02T22:39:44.536Z,19.00
2023-02-02T22:42:11.171Z,19.00
2023-02-02T22:44:37.835Z,19.00
2023-02-02T22:47:04.624Z,19.00
2023-02-02T22:49:31.464Z,18.90
2023-02-02T22:51:58.070Z,18.90
2023-02-02T22:54:24.708Z,18.90
2023-02-02T22:56:51.379Z,18.90
2023-02-02T22:59:18.125Z,18.90
2023-02-02T23:01:44.711Z,18.90
2023-02-02T23:04:11.606Z,18.90
2023-02-02T23:06:38.342Z,18.90
2023-02-02T23:09:04.999Z,18.90
2023-02-02T23:11:31.619Z,18.90
2023-02-02T23:13:58.262Z,18.90
2023-02-02T23:16:25.056Z,18.90
2023-02-02T23:18:51.816Z,18.90
2023-02-02T23:21:18.451Z,18.90
2023-02-02T23:23:45.085Z,18.90
2023-02-02T23:26:11.765Z,18.90
2023-02-02T23:28:38.390Z,18.90
2023-02-02T23:31:05.370Z,18.90
2023-02-02T23:33:32.346Z,18.80
2023-02-02T23:35:59.002Z,18.90
2023-02-02T23:38:25.637Z,18.80
2023-02-02T23:40:52.302Z,18.80
2023-02-02T23:43:19.029Z,18.90
2023-02-02T23:45:45.796Z,18.80
2023-02-02T23:48:13.152Z,18.80
2023-02-02T23:50:40.079Z,18.80
2023-02-02T23:53:08.334Z,18.80
2023-02-02T23:55:35.430Z,18.80
2023-02-02T23:58:02.449Z,18.80
